Time;durP1;ratioP1;P1;durP2;ratioP2;P2;SDS_P1;SDS_P2;PMS_P1;PMS_P2;Temp;Humidity;BMP_temperature;BMP_pressure;BME280_temperature;BME280_humidity;BME280_pressure;Samples;Min_cycle;Max_cycle;Signal;HPM_P1;HPM_P2
2022/11/04 00:00:17;;;;;;;5.53;3.40;;;;;;;;;;4976252;28;20236;-78
2022/11/04 00:02:46;;;;;;;3.73;3.20;;;;;;;;;;4985612;28;20308;-78
2022/11/04 00:05:14;;;;;;;4.30;3.50;;;;;;;;;;4995546;28;20221;-78
2022/11/04 00:13:11;;;;;;;5.13;3.77;;;;;;;;;;4994348;28;20233;-78
2022/11/04 00:18:27;;;;;;;5.40;4.50;;;;;;;;;;4977008;28;20248;-78
2022/11/04 00:29:15;;;;;;;5.67;4.10;;;;;;;;;;4995167;28;20233;-78
2022/11/04 00:34:31;;;;;;;7.37;4.73;;;;;;;;;;4995204;28;20224;-77
2022/11/04 00:37:01;;;;;;;6.63;4.40;;;;;;;;;;4987314;28;20226;-78
2022/11/04 00:39:30;;;;;;;6.03;4.20;;;;;;;;;;4977571;28;20190;-78
2022/11/04 00:41:58;;;;;;;5.43;4.10;;;;;;;;;;4995371;28;20229;-78
2022/11/04 00:44:27;;;;;;;4.57;3.97;;;;;;;;;;4994979;28;20296;-78
2022/11/04 00:46:57;;;;;;;4.37;3.70;;;;;;;;;;4995079;28;20284;-77
2022/11/04 00:49:25;;;;;;;4.73;3.90;;;;;;;;;;4994878;28;20223;-78
2022/11/04 00:51:54;;;;;;;4.17;3.77;;;;;;;;;;4994693;28;20217;-78
2022/11/04 00:54:22;;;;;;;5.20;3.93;;;;;;;;;;4994893;28;20300;-78
2022/11/04 00:56:52;;;;;;;4.20;3.80;;;;;;;;;;4994302;28;20240;-78
2022/11/04 00:59:21;;;;;;;5.07;3.97;;;;;;;;;;4993938;28;20237;-77
2022/11/04 01:01:49;;;;;;;5.23;3.60;;;;;;;;;;4994684;28;20295;-77
2022/11/04 01:04:19;;;;;;;5.37;3.83;;;;;;;;;;4994715;28;20223;-77
2022/11/04 01:06:48;;;;;;;5.53;3.83;;;;;;;;;;4994625;28;20324;-77
2022/11/04 01:09:16;;;;;;;4.10;3.47;;;;;;;;;;4993799;28;20291;-76
2022/11/04 01:11:45;;;;;;;3.70;3.40;;;;;;;;;;4975461;28;20253;-77
2022/11/04 01:14:13;;;;;;;4.43;3.47;;;;;;;;;;4994101;28;20209;-77
2022/11/04 01:16:42;;;;;;;3.47;2.87;;;;;;;;;;4994224;28;20248;-76
2022/11/04 01:19:11;;;;;;;4.50;3.17;;;;;;;;;;4994600;28;20243;-77
2022/11/04 01:21:41;;;;;;;3.63;2.80;;;;;;;;;;4994219;28;20271;-77
2022/11/04 01:24:09;;;;;;;4.23;3.10;;;;;;;;;;4994608;28;20292;-77
2022/11/04 01:26:37;;;;;;;3.30;3.00;;;;;;;;;;4993618;28;20256;-77
2022/11/04 01:29:06;;;;;;;3.30;2.90;;;;;;;;;;4994176;28;20205;-77
2022/11/04 01:31:34;;;;;;;4.40;3.20;;;;;;;;;;4994176;28;20261;-77
2022/11/04 01:34:03;;;;;;;4.03;3.20;;;;;;;;;;4993841;28;20256;-76
2022/11/04 01:36:32;;;;;;;3.43;2.83;;;;;;;;;;4994188;28;20229;-77
2022/11/04 01:39:01;;;;;;;4.03;3.13;;;;;;;;;;4994384;28;20224;-77
2022/11/04 01:41:31;;;;;;;3.50;3.17;;;;;;;;;;4994447;28;20229;-78
2022/11/04 01:44:00;;;;;;;3.07;2.77;;;;;;;;;;4994211;28;20259;-76
2022/11/04 01:46:39;;;;;;;3.30;3.10;;;;;;;;;;4994064;28;20256;-77
2022/11/04 01:49:18;;;;;;;4.40;3.40;;;;;;;;;;4994025;28;20232;-76
2022/11/04 01:51:47;;;;;;;3.40;3.10;;;;;;;;;;4974768;28;20588;-76
2022/11/04 01:54:17;;;;;;;3.40;3.10;;;;;;;;;;4974694;28;20209;-76
2022/11/04 01:56:47;;;;;;;3.20;2.90;;;;;;;;;;4987765;28;20197;-76
2022/11/04 01:59:19;;;;;;;3.10;2.80;;;;;;;;;;4994214;28;20233;-76
2022/11/04 02:01:47;;;;;;;3.40;3.10;;;;;;;;;;4993651;28;20320;-76
2022/11/04 02:04:26;;;;;;;3.67;3.37;;;;;;;;;;4993528;28;20216;-76
2022/11/04 02:06:55;;;;;;;3.37;3.07;;;;;;;;;;4993187;28;20233;-77
2022/11/04 02:09:26;;;;;;;3.47;3.17;;;;;;;;;;4993708;28;20646;-76
2022/11/04 02:14:41;;;;;;;4.60;3.37;;;;;;;;;;4997714;28;20251;-77
2022/11/04 02:17:15;;;;;;;3.73;3.37;;;;;;;;;;4997482;28;20232;-77
2022/11/04 02:19:53;;;;;;;3.23;3.00;;;;;;;;;;4990314;28;20256;-77
2022/11/04 02:22:43;;;;;;;4.20;3.30;;;;;;;;;;4997436;28;20276;-76
2022/11/04 02:25:22;;;;;;;3.60;3.13;;;;;;;;;;4974441;28;20248;-76
2022/11/04 02:28:00;;;;;;;4.27;2.93;;;;;;;;;;4977685;28;20246;-77
2022/11/04 02:30:32;;;;;;;2.67;2.47;;;;;;;;;;4978145;28;20218;-77
2022/11/04 02:33:13;;;;;;;3.03;2.07;;;;;;;;;;4978481;28;20616;-77
2022/11/04 02:35:44;;;;;;;2.97;2.40;;;;;;;;;;4996878;28;20666;-77
2022/11/04 02:38:16;;;;;;;2.23;2.03;;;;;;;;;;4996310;28;20229;-76
2022/11/04 02:40:47;;;;;;;2.30;2.00;;;;;;;;;;4977860;28;20268;-77
2022/11/04 02:43:22;;;;;;;2.07;1.87;;;;;;;;;;4977760;28;20228;-77
2022/11/04 02:45:57;;;;;;;2.33;1.43;;;;;;;;;;4977963;28;20223;-76
2022/11/04 02:48:27;;;;;;;1.50;1.40;;;;;;;;;;4977796;28;20296;-77
2022/11/04 02:51:00;;;;;;;1.70;1.50;;;;;;;;;;4977313;28;20317;-78
2022/11/04 02:53:31;;;;;;;2.07;1.70;;;;;;;;;;4982341;28;20301;-77
2022/11/04 02:56:01;;;;;;;1.77;1.63;;;;;;;;;;4977797;28;20276;-77
2022/11/04 02:58:31;;;;;;;2.77;1.60;;;;;;;;;;4977715;28;20666;-77
2022/11/04 03:01:02;;;;;;;2.60;1.90;;;;;;;;;;4977583;28;20230;-77
2022/11/04 03:03:34;;;;;;;1.80;1.50;;;;;;;;;;4977301;28;20236;-76
2022/11/04 03:06:03;;;;;;;2.23;1.93;;;;;;;;;;4977292;28;20229;-77
2022/11/04 03:08:34;;;;;;;6.40;2.03;;;;;;;;;;4977055;28;20265;-76
2022/11/04 03:11:03;;;;;;;2.27;2.07;;;;;;;;;;4977465;28;20300;-77
2022/11/04 03:13:34;;;;;;;2.63;2.43;;;;;;;;;;4977572;28;20285;-77
2022/11/04 03:16:08;;;;;;;2.50;2.30;;;;;;;;;;4977158;28;20651;-76
2022/11/04 03:18:39;;;;;;;3.50;3.00;;;;;;;;;;4985041;28;20206;-77
2022/11/04 03:21:10;;;;;;;3.03;2.73;;;;;;;;;;4996088;28;20229;-77
2022/11/04 03:23:39;;;;;;;3.47;3.17;;;;;;;;;;4996043;28;20650;-77
2022/11/04 03:26:09;;;;;;;3.67;3.37;;;;;;;;;;4992234;28;20233;-77
2022/11/04 03:28:42;;;;;;;4.00;3.70;;;;;;;;;;4977095;28;20250;-77
2022/11/04 03:31:14;;;;;;;4.60;4.20;;;;;;;;;;4976842;28;20253;-77
2022/11/04 03:33:44;;;;;;;4.53;4.13;;;;;;;;;;4976735;28;20545;-77
2022/11/04 03:36:12;;;;;;;4.80;4.40;;;;;;;;;;4978158;28;20256;-77
2022/11/04 03:38:41;;;;;;;5.33;4.63;;;;;;;;;;4996352;28;20247;-77
2022/11/04 03:41:12;;;;;;;5.17;4.77;;;;;;;;;;4996150;28;20288;-77
2022/11/04 03:43:42;;;;;;;10.40;5.57;;;;;;;;;;4996170;28;20249;-76
2022/11/04 03:46:12;;;;;;;5.67;5.03;;;;;;;;;;4995966;28;20237;-77
2022/11/04 03:48:43;;;;;;;9.37;5.57;;;;;;;;;;4995525;28;20287;-77
2022/11/04 03:51:12;;;;;;;5.77;5.37;;;;;;;;;;4995992;28;20789;-76
2022/11/04 03:53:41;;;;;;;6.70;6.10;;;;;;;;;;4976479;28;20245;-76
2022/11/04 03:56:23;;;;;;;6.73;6.13;;;;;;;;;;4976181;28;20253;-76
2022/11/04 03:58:59;;;;;;;6.77;6.13;;;;;;;;;;4976259;28;20198;-76
2022/11/04 04:01:32;;;;;;;7.23;6.40;;;;;;;;;;4992115;28;20701;-76
2022/11/04 04:04:05;;;;;;;6.70;6.03;;;;;;;;;;4995945;28;20212;-76
2022/11/04 04:06:35;;;;;;;6.67;6.17;;;;;;;;;;4995641;28;20281;-76
2022/11/04 04:09:09;;;;;;;6.77;6.17;;;;;;;;;;4995342;28;20280;-76
2022/11/04 04:11:41;;;;;;;6.80;6.30;;;;;;;;;;4995753;28;20264;-76
2022/11/04 04:14:38;;;;;;;7.60;7.10;;;;;;;;;;4976494;28;20683;-76
2022/11/04 04:17:06;;;;;;;7.73;7.07;;;;;;;;;;4987529;28;20209;-76
2022/11/04 04:19:40;;;;;;;7.40;6.80;;;;;;;;;;4995276;28;20236;-76
2022/11/04 04:22:11;;;;;;;7.60;7.00;;;;;;;;;;4995985;28;20225;-76
2022/11/04 04:27:32;;;;;;;7.53;6.83;;;;;;;;;;5014672;28;20224;-76
2022/11/04 04:30:03;;;;;;;7.80;7.20;;;;;;;;;;4983792;28;20256;-76
2022/11/04 04:32:34;;;;;;;6.80;6.30;;;;;;;;;;4976452;28;20234;-76
2022/11/04 04:37:49;;;;;;;7.63;6.93;;;;;;;;;;4984136;28;20683;-76
2022/11/04 04:45:53;;;;;;;7.20;6.60;;;;;;;;;;4998338;28;20235;-76
2022/11/04 04:48:23;;;;;;;6.97;6.37;;;;;;;;;;5013332;28;20326;-76
2022/11/04 04:50:55;;;;;;;7.33;6.67;;;;;;;;;;4994570;28;20256;-76
2022/11/04 04:53:24;;;;;;;7.70;7.10;;;;;;;;;;4994976;28;20575;-76
2022/11/04 04:55:52;;;;;;;7.43;6.83;;;;;;;;;;4994894;28;20304;-76
2022/11/04 04:58:21;;;;;;;7.90;7.20;;;;;;;;;;4997542;28;20293;-76
2022/11/04 05:00:49;;;;;;;7.70;7.00;;;;;;;;;;4975147;28;20233;-76
2022/11/04 05:03:18;;;;;;;7.80;7.10;;;;;;;;;;4975655;28;20662;-76
2022/11/04 05:05:48;;;;;;;7.77;7.07;;;;;;;;;;4975017;28;20214;-76
2022/11/04 05:08:18;;;;;;;8.53;7.77;;;;;;;;;;4975186;28;20202;-76
2022/11/04 05:10:46;;;;;;;8.70;7.97;;;;;;;;;;4974835;28;20286;-76
2022/11/04 05:13:28;;;;;;;8.80;8.03;;;;;;;;;;4974921;28;20241;-76
2022/11/04 05:15:57;;;;;;;8.70;8.00;;;;;;;;;;4981980;28;20201;-76
2022/11/04 05:18:26;;;;;;;8.10;7.30;;;;;;;;;;4994037;28;20237;-76
2022/11/04 05:20:55;;;;;;;9.10;8.30;;;;;;;;;;4993930;28;20296;-76
2022/11/04 05:23:24;;;;;;;9.17;8.27;;;;;;;;;;4982714;28;20620;-76
2022/11/04 05:25:53;;;;;;;8.77;7.97;;;;;;;;;;4994050;28;20201;-77
2022/11/04 05:28:21;;;;;;;8.93;8.13;;;;;;;;;;4993692;28;20229;-77
2022/11/04 05:30:50;;;;;;;16.67;9.00;;;;;;;;;;4993968;28;20221;-77
2022/11/04 05:33:18;;;;;;;9.20;8.40;;;;;;;;;;4994105;28;20233;-76
2022/11/04 05:35:46;;;;;;;8.47;7.67;;;;;;;;;;4994225;28;20300;-77
2022/11/04 05:38:16;;;;;;;9.47;8.67;;;;;;;;;;4994415;28;20232;-77
2022/11/04 05:40:45;;;;;;;8.47;7.70;;;;;;;;;;4994100;28;20566;-77
2022/11/04 05:43:13;;;;;;;9.13;8.27;;;;;;;;;;4994115;28;20291;-78
2022/11/04 05:45:42;;;;;;;8.30;7.50;;;;;;;;;;4997548;28;20235;-77
2022/11/04 05:48:10;;;;;;;9.07;8.27;;;;;;;;;;5000280;28;20304;-77
2022/11/04 05:50:38;;;;;;;9.20;8.40;;;;;;;;;;5000653;28;20201;-77
2022/11/04 05:53:07;;;;;;;9.27;8.40;;;;;;;;;;5001260;28;20208;-80
2022/11/04 05:55:37;;;;;;;9.37;8.47;;;;;;;;;;5000405;28;20255;-76
2022/11/04 05:58:06;;;;;;;10.10;9.20;;;;;;;;;;5000177;28;20289;-76
2022/11/04 06:00:35;;;;;;;10.40;8.90;;;;;;;;;;5000580;28;20205;-76
2022/11/04 06:03:03;;;;;;;9.70;8.80;;;;;;;;;;5000366;28;20200;-76
2022/11/04 06:05:32;;;;;;;9.50;8.70;;;;;;;;;;5000067;28;20212;-76
2022/11/04 06:08:00;;;;;;;10.17;9.27;;;;;;;;;;5000066;28;20259;-76
2022/11/04 06:10:29;;;;;;;10.00;9.10;;;;;;;;;;5000036;28;20268;-76
2022/11/04 06:12:59;;;;;;;10.53;9.53;;;;;;;;;;5000383;28;20240;-76
2022/11/04 06:15:27;;;;;;;9.63;8.83;;;;;;;;;;4990882;28;20293;-76
2022/11/04 06:17:56;;;;;;;10.50;9.57;;;;;;;;;;4986519;28;20201;-76
2022/11/04 06:20:24;;;;;;;12.47;9.63;;;;;;;;;;4993438;28;20237;-76
2022/11/04 06:22:53;;;;;;;11.30;10.30;;;;;;;;;;4999255;28;20240;-77
2022/11/04 06:25:21;;;;;;;10.73;9.63;;;;;;;;;;5000139;28;20673;-76
2022/11/04 06:27:50;;;;;;;10.77;9.77;;;;;;;;;;5000093;28;20716;-76
2022/11/04 06:30:19;;;;;;;11.47;9.90;;;;;;;;;;4999746;28;20316;-76
2022/11/04 06:32:48;;;;;;;10.43;9.43;;;;;;;;;;5000702;28;20308;-76
2022/11/04 06:35:17;;;;;;;10.30;9.33;;;;;;;;;;4999839;28;20642;-76
2022/11/04 06:37:45;;;;;;;10.07;9.17;;;;;;;;;;5000698;28;20292;-76
2022/11/04 06:40:13;;;;;;;9.67;8.67;;;;;;;;;;5000067;28;20624;-76
2022/11/04 06:42:43;;;;;;;10.33;8.97;;;;;;;;;;4999934;28;20271;-76
2022/11/04 06:45:12;;;;;;;9.50;8.53;;;;;;;;;;4995411;28;20222;-75
2022/11/04 06:47:42;;;;;;;9.50;8.47;;;;;;;;;;4999633;28;20284;-76
2022/11/04 06:50:11;;;;;;;10.40;8.73;;;;;;;;;;4999815;28;20256;-76
2022/11/04 06:52:39;;;;;;;9.60;8.30;;;;;;;;;;4999344;28;20260;-76
2022/11/04 06:55:10;;;;;;;8.43;7.63;;;;;;;;;;5000278;28;20205;-76
2022/11/04 06:57:39;;;;;;;9.70;7.80;;;;;;;;;;4997328;28;20296;-76
2022/11/04 07:00:08;;;;;;;9.17;7.57;;;;;;;;;;4996824;28;20232;-76
2022/11/04 07:02:37;;;;;;;8.10;7.30;;;;;;;;;;4997012;28;20237;-76
2022/11/04 07:05:08;;;;;;;7.77;7.00;;;;;;;;;;4978458;28;20206;-76
2022/11/04 07:07:36;;;;;;;8.83;7.53;;;;;;;;;;4977564;28;20229;-76
2022/11/04 07:10:05;;;;;;;10.00;7.13;;;;;;;;;;4977499;28;20726;-76
2022/11/04 07:12:34;;;;;;;9.60;7.73;;;;;;;;;;4977527;28;20657;-75
2022/11/04 07:15:02;;;;;;;7.67;6.93;;;;;;;;;;4977023;28;20242;-76
2022/11/04 07:17:31;;;;;;;8.60;6.80;;;;;;;;;;4978121;28;20214;-76
2022/11/04 07:19:59;;;;;;;7.97;6.73;;;;;;;;;;4977578;28;20237;-76
2022/11/04 07:22:29;;;;;;;8.43;7.03;;;;;;;;;;4977549;28;20268;-76
2022/11/04 07:24:57;;;;;;;7.27;6.57;;;;;;;;;;4994491;28;20249;-76
2022/11/04 07:27:26;;;;;;;8.00;6.43;;;;;;;;;;4997733;28;20244;-76
2022/11/04 07:29:54;;;;;;;7.00;6.30;;;;;;;;;;4997444;28;20257;-76
2022/11/04 07:32:23;;;;;;;8.00;7.10;;;;;;;;;;4998206;28;20283;-76
2022/11/04 07:34:51;;;;;;;7.10;6.40;;;;;;;;;;4997552;28;20240;-77
2022/11/04 07:37:20;;;;;;;7.97;6.93;;;;;;;;;;4998317;28;20201;-76
2022/11/04 07:39:50;;;;;;;9.27;6.80;;;;;;;;;;4998525;28;20201;-76
2022/11/04 07:42:19;;;;;;;8.00;7.20;;;;;;;;;;4997926;28;20702;-76
2022/11/04 07:44:48;;;;;;;9.70;6.97;;;;;;;;;;4997442;28;20296;-76
2022/11/04 07:47:16;;;;;;;9.70;7.10;;;;;;;;;;4998995;28;20205;-75
2022/11/04 07:49:45;;;;;;;7.50;6.80;;;;;;;;;;4997253;28;20256;-76
2022/11/04 07:52:13;;;;;;;8.87;6.87;;;;;;;;;;4998022;28;20295;-76
2022/11/04 07:54:42;;;;;;;7.60;6.90;;;;;;;;;;4999091;28;20216;-76
2022/11/04 07:57:11;;;;;;;10.07;7.17;;;;;;;;;;4997179;28;20244;-76
2022/11/04 07:59:40;;;;;;;9.50;6.50;;;;;;;;;;4999477;28;20239;-76
2022/11/04 08:02:10;;;;;;;10.50;7.20;;;;;;;;;;4998657;28;20773;-76
2022/11/04 08:04:38;;;;;;;10.10;7.10;;;;;;;;;;4997328;28;20204;-76
2022/11/04 08:07:08;;;;;;;8.73;7.10;;;;;;;;;;4997324;28;20244;-75
2022/11/04 08:09:37;;;;;;;9.50;7.33;;;;;;;;;;4996867;28;20260;-76
2022/11/04 08:12:05;;;;;;;8.43;7.53;;;;;;;;;;4998343;28;20221;-76
2022/11/04 08:14:35;;;;;;;9.43;7.20;;;;;;;;;;4998224;28;20621;-76
2022/11/04 08:17:04;;;;;;;9.77;8.00;;;;;;;;;;4997718;28;20738;-75
2022/11/04 08:19:32;;;;;;;9.70;7.97;;;;;;;;;;4997610;28;20225;-76
2022/11/04 08:22:01;;;;;;;10.47;8.93;;;;;;;;;;4997159;28;20232;-76
2022/11/04 08:24:29;;;;;;;9.83;7.93;;;;;;;;;;4997895;28;20237;-76
2022/11/04 08:26:58;;;;;;;10.73;7.77;;;;;;;;;;4997141;28;20209;-76
2022/11/04 08:29:26;;;;;;;8.73;7.70;;;;;;;;;;4997217;28;20244;-75
2022/11/04 08:31:56;;;;;;;8.63;7.73;;;;;;;;;;4997564;28;20228;-75
2022/11/04 08:34:25;;;;;;;8.37;7.27;;;;;;;;;;4997378;28;20236;-76
2022/11/04 08:36:56;;;;;;;9.20;7.67;;;;;;;;;;4997273;28;20201;-76
2022/11/04 08:39:25;;;;;;;8.93;7.13;;;;;;;;;;4995397;28;20189;-76
2022/11/04 08:41:53;;;;;;;10.13;7.50;;;;;;;;;;4994934;28;20229;-77
2022/11/04 08:44:22;;;;;;;9.03;7.60;;;;;;;;;;4995332;28;20621;-76
2022/11/04 08:46:51;;;;;;;9.77;7.10;;;;;;;;;;4994789;28;20405;-76
2022/11/04 08:49:21;;;;;;;9.70;6.70;;;;;;;;;;4995044;28;20296;-76
2022/11/04 08:51:55;;;;;;;7.77;6.97;;;;;;;;;;4995059;28;20264;-75
2022/11/04 08:54:23;;;;;;;9.40;6.20;;;;;;;;;;4994871;28;20208;-76
2022/11/04 08:56:53;;;;;;;7.53;6.30;;;;;;;;;;4994175;28;20213;-76
2022/11/04 08:59:21;;;;;;;9.27;6.83;;;;;;;;;;4994744;28;20241;-76
2022/11/04 09:01:49;;;;;;;7.37;6.60;;;;;;;;;;4994148;28;20233;-76
2022/11/04 09:04:18;;;;;;;9.23;6.60;;;;;;;;;;4995045;28;20210;-76
2022/11/04 09:06:49;;;;;;;6.33;5.73;;;;;;;;;;4994389;28;20235;-76
2022/11/04 09:09:18;;;;;;;9.57;5.97;;;;;;;;;;4994613;28;20189;-76
2022/11/04 09:11:48;;;;;;;8.07;5.90;;;;;;;;;;4993841;28;20625;-77
2022/11/04 09:14:17;;;;;;;8.13;5.47;;;;;;;;;;4994725;28;20654;-76
2022/11/04 09:16:46;;;;;;;7.47;4.60;;;;;;;;;;4994356;28;20201;-76
2022/11/04 09:19:14;;;;;;;4.97;3.83;;;;;;;;;;4994247;28;20709;-76
2022/11/04 09:21:43;;;;;;;5.53;4.30;;;;;;;;;;4993610;28;20263;-76
2022/11/04 09:24:12;;;;;;;4.60;4.20;;;;;;;;;;4994249;28;20217;-76
2022/11/04 09:26:43;;;;;;;8.90;4.30;;;;;;;;;;4994010;28;20201;-76
2022/11/04 09:29:12;;;;;;;9.00;4.90;;;;;;;;;;4994459;28;20209;-76
2022/11/04 09:31:42;;;;;;;5.67;4.37;;;;;;;;;;4994329;28;20329;-76
2022/11/04 09:34:13;;;;;;;8.97;4.50;;;;;;;;;;5010061;28;20292;-76
2022/11/04 09:36:42;;;;;;;5.00;4.30;;;;;;;;;;5000539;28;20256;-76
2022/11/04 09:39:11;;;;;;;6.07;4.77;;;;;;;;;;4992938;28;20236;-76
2022/11/04 09:41:49;;;;;;;4.40;4.00;;;;;;;;;;4992672;28;20744;-77
2022/11/04 09:44:23;;;;;;;7.03;4.73;;;;;;;;;;4985252;28;20209;-76
2022/11/04 09:46:54;;;;;;;6.20;4.53;;;;;;;;;;4977128;28;20221;-76
2022/11/04 09:49:22;;;;;;;4.90;3.83;;;;;;;;;;4977453;28;20217;-76
2022/11/04 09:51:51;;;;;;;5.53;4.50;;;;;;;;;;4976101;28;20230;-76
2022/11/04 09:54:24;;;;;;;4.90;4.50;;;;;;;;;;4987253;28;20236;-75
2022/11/04 09:56:56;;;;;;;6.87;4.77;;;;;;;;;;4995755;28;20205;-77
2022/11/04 09:59:28;;;;;;;6.17;4.90;;;;;;;;;;4976946;28;20608;-76
2022/11/04 10:02:01;;;;;;;7.57;5.40;;;;;;;;;;4976519;28;20236;-76
2022/11/04 10:04:32;;;;;;;6.93;5.57;;;;;;;;;;4974738;28;20213;-76
2022/11/04 10:07:08;;;;;;;5.70;5.13;;;;;;;;;;4974009;28;20226;-76
2022/11/04 10:09:44;;;;;;;4.67;4.27;;;;;;;;;;4980157;28;20288;-76
2022/11/04 10:12:20;;;;;;;4.60;3.97;;;;;;;;;;4993503;28;20773;-76
2022/11/04 10:15:07;;;;;;;7.17;4.30;;;;;;;;;;4994067;28;20589;-76
2022/11/04 10:17:44;;;;;;;5.40;4.03;;;;;;;;;;4993849;28;20276;-76
2022/11/04 10:20:19;;;;;;;6.63;4.30;;;;;;;;;;4993494;28;20666;-76
2022/11/04 10:22:56;;;;;;;4.53;4.10;;;;;;;;;;4993464;28;20311;-76
2022/11/04 10:25:26;;;;;;;5.30;4.23;;;;;;;;;;4977063;28;20248;-76
2022/11/04 10:27:56;;;;;;;5.83;4.90;;;;;;;;;;4974369;28;20256;-76
2022/11/04 10:30:25;;;;;;;5.47;4.97;;;;;;;;;;4973867;28;20222;-76
2022/11/04 10:32:58;;;;;;;6.50;4.90;;;;;;;;;;4977516;28;20581;-76
2022/11/04 10:35:31;;;;;;;5.90;5.30;;;;;;;;;;4978505;28;20183;-76
2022/11/04 10:38:02;;;;;;;7.30;5.30;;;;;;;;;;4977704;28;20230;-76
2022/11/04 10:40:35;;;;;;;7.00;5.13;;;;;;;;;;4977706;28;20210;-76
2022/11/04 10:43:08;;;;;;;8.07;5.27;;;;;;;;;;4978160;28;20670;-75
2022/11/04 10:45:42;;;;;;;8.77;5.07;;;;;;;;;;4977648;28;20605;-75
2022/11/04 10:48:13;;;;;;;6.03;5.33;;;;;;;;;;4977743;28;20277;-76
2022/11/04 10:50:43;;;;;;;6.30;5.57;;;;;;;;;;4977624;28;20655;-76
2022/11/04 10:53:13;;;;;;;7.77;5.60;;;;;;;;;;4982277;28;20280;-75
2022/11/04 10:55:46;;;;;;;7.27;5.63;;;;;;;;;;4996697;28;20248;-76
2022/11/04 10:58:18;;;;;;;7.43;5.53;;;;;;;;;;4997076;28;20217;-76
2022/11/04 11:00:47;;;;;;;6.70;5.17;;;;;;;;;;4996773;28;20658;-76
2022/11/04 11:03:26;;;;;;;6.67;5.27;;;;;;;;;;4995221;28;20205;-76
2022/11/04 11:05:55;;;;;;;8.17;5.67;;;;;;;;;;4996840;28;20646;-76
2022/11/04 11:08:31;;;;;;;6.87;5.37;;;;;;;;;;4996664;28;20292;-76
2022/11/04 11:10:59;;;;;;;6.33;5.00;;;;;;;;;;4996500;28;20307;-76
2022/11/04 11:13:35;;;;;;;6.20;4.63;;;;;;;;;;4996679;28;20259;-76
2022/11/04 11:16:08;;;;;;;6.60;5.10;;;;;;;;;;4996377;28;20283;-75
2022/11/04 11:18:37;;;;;;;6.50;5.00;;;;;;;;;;4996247;28;20205;-76
2022/11/04 11:21:07;;;;;;;5.23;4.73;;;;;;;;;;4996279;28;20214;-76
2022/11/04 11:23:38;;;;;;;5.70;5.20;;;;;;;;;;4996167;28;20322;-75
2022/11/04 11:26:07;;;;;;;5.47;4.80;;;;;;;;;;4996197;28;20604;-76
2022/11/04 11:28:39;;;;;;;4.90;4.00;;;;;;;;;;4996264;28;20252;-76
2022/11/04 11:31:15;;;;;;;7.63;4.27;;;;;;;;;;4996223;28;20265;-75
2022/11/04 11:33:48;;;;;;;4.83;4.43;;;;;;;;;;4996471;28;20205;-75
2022/11/04 11:36:19;;;;;;;6.57;4.23;;;;;;;;;;4996189;28;20189;-76
2022/11/04 11:38:55;;;;;;;6.90;4.27;;;;;;;;;;4996166;28;20273;-75
2022/11/04 11:41:30;;;;;;;4.83;4.13;;;;;;;;;;4996214;28;20252;-76
2022/11/04 11:44:01;;;;;;;4.53;3.80;;;;;;;;;;4995235;28;20263;-76
2022/11/04 11:46:31;;;;;;;4.23;3.60;;;;;;;;;;4996307;28;20267;-75
2022/11/04 11:49:01;;;;;;;4.20;3.20;;;;;;;;;;4995409;28;20244;-75
2022/11/04 11:51:31;;;;;;;5.10;3.50;;;;;;;;;;4995658;28;20233;-76
2022/11/04 11:54:08;;;;;;;6.57;3.57;;;;;;;;;;4996027;28;20566;-75
2022/11/04 11:56:42;;;;;;;4.03;3.60;;;;;;;;;;4995751;28;20197;-75
2022/11/04 11:59:37;;;;;;;4.17;3.33;;;;;;;;;;4995968;28;20201;-75
2022/11/04 12:02:29;;;;;;;5.23;3.90;;;;;;;;;;4991307;28;20224;-76
2022/11/04 12:04:58;;;;;;;6.07;3.97;;;;;;;;;;4995629;28;20627;-75
2022/11/04 12:07:52;;;;;;;6.10;4.60;;;;;;;;;;4995017;28;20575;-76
2022/11/04 12:10:42;;;;;;;5.33;4.37;;;;;;;;;;4995147;28;20205;-75
2022/11/04 12:13:22;;;;;;;4.97;4.47;;;;;;;;;;4995661;28;20559;-75
2022/11/04 12:16:14;;;;;;;6.77;4.80;;;;;;;;;;4994769;28;20204;-76
2022/11/04 12:18:47;;;;;;;7.20;5.43;;;;;;;;;;4975187;28;20674;-76
2022/11/04 12:21:18;;;;;;;6.30;4.40;;;;;;;;;;4974172;28;20268;-79
2022/11/04 12:23:51;;;;;;;4.87;4.37;;;;;;;;;;4986625;28;20182;-80
2022/11/04 12:26:28;;;;;;;4.47;4.03;;;;;;;;;;4994502;28;20194;-78
2022/11/04 12:29:11;;;;;;;5.53;4.53;;;;;;;;;;4980615;28;20264;-80
2022/11/04 12:31:50;;;;;;;5.93;4.00;;;;;;;;;;4991130;28;20230;-80
2022/11/04 12:34:35;;;;;;;5.87;4.30;;;;;;;;;;4990354;28;20178;-78
2022/11/04 12:37:18;;;;;;;12.90;9.43;;;;;;;;;;4981893;28;20245;-79
2022/11/04 12:40:24;;;;;;;9.40;7.00;;;;;;;;;;4982875;28;20221;-78
2022/11/04 12:43:39;;;;;;;5.73;4.40;;;;;;;;;;4992365;28;20231;-78
2022/11/04 12:46:33;;;;;;;5.87;4.47;;;;;;;;;;4989784;28;20221;-80
2022/11/04 12:49:13;;;;;;;7.63;4.50;;;;;;;;;;4987970;28;20186;-80
2022/11/04 12:51:46;;;;;;;3.93;3.20;;;;;;;;;;4983890;28;20683;-80
2022/11/04 12:54:30;;;;;;;4.83;3.27;;;;;;;;;;4978899;28;20600;-80
2022/11/04 12:57:08;;;;;;;3.97;3.47;;;;;;;;;;4983771;28;20244;-80
2022/11/04 12:59:47;;;;;;;5.97;5.37;;;;;;;;;;4985546;28;20186;-79
2022/11/04 13:02:21;;;;;;;14.50;12.97;;;;;;;;;;4985557;28;20291;-81
2022/11/04 13:05:09;;;;;;;6.30;3.23;;;;;;;;;;4983500;28;20206;-79
2022/11/04 13:07:42;;;;;;;5.07;4.03;;;;;;;;;;4984736;28;20193;-80
2022/11/04 13:10:17;;;;;;;4.63;3.23;;;;;;;;;;5003619;28;20198;-80
2022/11/04 13:12:47;;;;;;;4.50;3.20;;;;;;;;;;5013744;28;20328;-80
2022/11/04 13:15:22;;;;;;;6.77;4.93;;;;;;;;;;5016129;28;20224;-78
2022/11/04 13:17:53;;;;;;;5.97;3.90;;;;;;;;;;5012170;28;20564;-80
2022/11/04 13:20:27;;;;;;;10.90;7.60;;;;;;;;;;5016899;28;20232;-80
2022/11/04 13:22:59;;;;;;;13.37;12.13;;;;;;;;;;5014830;28;20175;-80
2022/11/04 13:25:32;;;;;;;11.40;10.13;;;;;;;;;;5016780;28;20188;-80
2022/11/04 13:28:03;;;;;;;11.30;9.10;;;;;;;;;;5014172;28;20209;-80
2022/11/04 13:30:37;;;;;;;8.37;7.63;;;;;;;;;;5006159;28;20627;-80
2022/11/04 13:33:10;;;;;;;26.10;23.73;;;;;;;;;;5014689;28;20228;-80
2022/11/04 13:35:45;;;;;;;16.50;15.00;;;;;;;;;;5008996;28;20213;-80
2022/11/04 13:38:16;;;;;;;10.10;8.00;;;;;;;;;;5012289;28;20631;-80
2022/11/04 13:40:50;;;;;;;19.53;17.60;;;;;;;;;;5006981;28;20268;-80
2022/11/04 13:43:40;;;;;;;17.53;15.37;;;;;;;;;;5005731;28;20631;-81
2022/11/04 13:46:19;;;;;;;7.37;6.67;;;;;;;;;;5001869;28;20614;-80
2022/11/04 13:48:58;;;;;;;9.87;8.57;;;;;;;;;;5000270;28;20217;-80
2022/11/04 13:51:36;;;;;;;7.40;6.27;;;;;;;;;;5004858;28;20256;-80
2022/11/04 13:54:05;;;;;;;6.27;5.00;;;;;;;;;;4999448;28;20248;-76
2022/11/04 13:56:35;;;;;;;8.10;3.50;;;;;;;;;;4993024;28;20649;-77
2022/11/04 13:59:06;;;;;;;9.47;6.63;;;;;;;;;;4993077;28;20213;-77
2022/11/04 14:01:35;;;;;;;5.57;3.13;;;;;;;;;;4992643;28;20233;-77
2022/11/04 14:04:19;;;;;;;6.27;3.40;;;;;;;;;;4993695;28;20251;-76
2022/11/04 14:06:51;;;;;;;6.27;3.93;;;;;;;;;;4994293;28;20290;-76
2022/11/04 14:09:37;;;;;;;3.67;2.63;;;;;;;;;;4993471;28;20240;-77
2022/11/04 14:12:19;;;;;;;4.43;2.63;;;;;;;;;;4991587;28;20253;-77
2022/11/04 14:14:57;;;;;;;6.13;5.53;;;;;;;;;;4991463;28;20276;-77
2022/11/04 14:17:44;;;;;;;6.27;5.67;;;;;;;;;;4996053;28;20275;-78
2022/11/04 14:20:23;;;;;;;7.87;6.07;;;;;;;;;;4997028;28;20360;-79
2022/11/04 14:22:54;;;;;;;8.90;6.83;;;;;;;;;;4986174;28;20564;-79
2022/11/04 14:25:27;;;;;;;9.73;7.00;;;;;;;;;;4996147;28;20546;-78
2022/11/04 14:27:56;;;;;;;9.87;6.87;;;;;;;;;;4996712;28;20706;-78
2022/11/04 14:30:33;;;;;;;7.10;4.73;;;;;;;;;;4996142;28;20213;-78
2022/11/04 14:33:03;;;;;;;4.37;2.97;;;;;;;;;;4997261;28;20205;-79
2022/11/04 14:35:32;;;;;;;3.93;2.73;;;;;;;;;;4997007;28;20308;-79
2022/11/04 14:38:06;;;;;;;6.23;2.87;;;;;;;;;;4997094;28;20197;-78
2022/11/04 14:40:50;;;;;;;4.77;3.03;;;;;;;;;;4996054;28;20283;-79
2022/11/04 14:43:26;;;;;;;3.77;2.80;;;;;;;;;;4997116;28;20277;-80
2022/11/04 14:45:55;;;;;;;5.00;3.10;;;;;;;;;;4996491;28;20296;-78
2022/11/04 14:48:24;;;;;;;5.80;3.00;;;;;;;;;;4982351;28;20257;-78
2022/11/04 14:50:54;;;;;;;3.97;2.80;;;;;;;;;;4976920;28;20299;-79
2022/11/04 14:53:26;;;;;;;5.40;3.10;;;;;;;;;;4996418;28;20221;-78
2022/11/04 14:56:04;;;;;;;5.60;3.20;;;;;;;;;;4988654;28;20627;-78
2022/11/04 14:58:33;;;;;;;11.00;6.73;;;;;;;;;;4976934;28;20412;-78
2022/11/04 15:01:02;;;;;;;8.27;5.30;;;;;;;;;;4993942;28;20265;-79
2022/11/04 15:03:34;;;;;;;3.80;3.43;;;;;;;;;;4998320;28;20260;-80
2022/11/04 15:06:27;;;;;;;4.40;2.93;;;;;;;;;;5000542;28;20211;-80
2022/11/04 15:09:23;;;;;;;5.80;3.47;;;;;;;;;;5002154;28;20201;-80
2022/11/04 15:14:38;;;;;;;4.97;3.37;;;;;;;;;;5001758;28;20235;-80
2022/11/04 15:17:06;;;;;;;7.13;3.83;;;;;;;;;;5005774;28;20232;-80
2022/11/04 15:19:36;;;;;;;6.10;4.10;;;;;;;;;;5000819;28;20228;-79
2022/11/04 15:22:05;;;;;;;8.90;5.13;;;;;;;;;;5001355;28;20221;-80
2022/11/04 15:24:36;;;;;;;9.13;5.87;;;;;;;;;;5001564;28;20209;-80
2022/11/04 15:27:05;;;;;;;10.63;5.07;;;;;;;;;;5002896;28;20197;-80
2022/11/04 15:29:34;;;;;;;8.23;6.20;;;;;;;;;;5000663;28;20251;-79
2022/11/04 15:32:04;;;;;;;9.50;5.47;;;;;;;;;;5002446;28;20260;-80
2022/11/04 15:34:33;;;;;;;10.27;6.57;;;;;;;;;;5000354;28;20225;-80
2022/11/04 15:37:04;;;;;;;11.63;5.60;;;;;;;;;;5000344;28;20208;-80
2022/11/04 15:39:34;;;;;;;9.80;5.47;;;;;;;;;;5000529;28;20193;-80
2022/11/04 15:44:54;;;;;;;6.60;4.90;;;;;;;;;;5001623;28;20284;-80
2022/11/04 15:47:24;;;;;;;7.53;4.33;;;;;;;;;;5002310;28;20212;-80